sensor_id;sensor_type;location;lat;lon;timestamp;pressure;altitude;pressure_sealevel;temperature;humidity
65151;BME280;51918;51.856;0.150;2023-04-27T00:03:08;101004.59;;;8.37;59.28
65151;BME280;51918;51.856;0.150;2023-04-27T00:08:08;100995.94;;;8.38;57.90
65151;BME280;51918;51.856;0.150;2023-04-27T00:13:09;100993.25;;;8.39;58.42
65151;BME280;51918;51.856;0.150;2023-04-27T00:18:11;101001.22;;;8.46;59.13
65151;BME280;51918;51.856;0.150;2023-04-27T00:23:11;100998.78;;;8.44;58.76
65151;BME280;51918;51.856;0.150;2023-04-27T00:28:12;100995.00;;;8.39;59.29
65151;BME280;51918;51.856;0.150;2023-04-27T00:33:15;100987.72;;;8.34;59.04
65151;BME280;51918;51.856;0.150;2023-04-27T00:38:16;100978.81;;;8.29;59.68
65151;BME280;51918;51.856;0.150;2023-04-27T00:43:16;100979.75;;;8.18;59.74
65151;BME280;51918;51.856;0.150;2023-04-27T00:48:18;100973.78;;;8.08;60.09
65151;BME280;51918;51.856;0.150;2023-04-27T00:53:19;100972.16;;;7.97;60.38
65151;BME280;51918;51.856;0.150;2023-04-27T00:58:20;100967.03;;;7.87;61.27
65151;BME280;51918;51.856;0.150;2023-04-27T01:03:22;100962.16;;;7.74;61.78
65151;BME280;51918;51.856;0.150;2023-04-27T01:08:23;100955.13;;;7.67;61.95
65151;BME280;51918;51.856;0.150;2023-04-27T01:13:23;100959.84;;;7.61;62.24
65151;BME280;51918;51.856;0.150;2023-04-27T01:18:25;100949.56;;;7.52;62.90
65151;BME280;51918;51.856;0.150;2023-04-27T01:23:27;100938.38;;;7.43;63.31
65151;BME280;51918;51.856;0.150;2023-04-27T01:28:28;100933.09;;;7.35;63.26
65151;BME280;51918;51.856;0.150;2023-04-27T01:33:28;100930.38;;;7.27;63.60
65151;BME280;51918;51.856;0.150;2023-04-27T01:38:31;100927.22;;;7.13;64.29
65151;BME280;51918;51.856;0.150;2023-04-27T01:43:32;100927.75;;;7.07;64.49
65151;BME280;51918;51.856;0.150;2023-04-27T01:48:33;100929.06;;;7.01;64.65
65151;BME280;51918;51.856;0.150;2023-04-27T01:53:35;100929.81;;;6.92;65.59
65151;BME280;51918;51.856;0.150;2023-04-27T01:58:35;100934.53;;;6.87;66.13
65151;BME280;51918;51.856;0.150;2023-04-27T02:03:36;100932.03;;;6.76;66.16
65151;BME280;51918;51.856;0.150;2023-04-27T02:08:38;100939.03;;;6.74;66.86
65151;BME280;51918;51.856;0.150;2023-04-27T02:13:39;100923.78;;;6.63;66.99
65151;BME280;51918;51.856;0.150;2023-04-27T02:18:39;100928.44;;;6.57;67.62
65151;BME280;51918;51.856;0.150;2023-04-27T02:23:41;100930.41;;;6.54;67.92
65151;BME280;51918;51.856;0.150;2023-04-27T02:28:42;100931.75;;;6.48;67.84
65151;BME280;51918;51.856;0.150;2023-04-27T02:33:42;100944.91;;;6.44;68.17
65151;BME280;51918;51.856;0.150;2023-04-27T02:38:44;100934.91;;;6.40;68.87
65151;BME280;51918;51.856;0.150;2023-04-27T02:43:45;100937.81;;;6.36;69.27
65151;BME280;51918;51.856;0.150;2023-04-27T02:48:45;100940.16;;;6.28;69.41
65151;BME280;51918;51.856;0.150;2023-04-27T02:53:47;100939.84;;;6.21;69.94
65151;BME280;51918;51.856;0.150;2023-04-27T02:58:48;100941.16;;;6.15;69.48
65151;BME280;51918;51.856;0.150;2023-04-27T03:03:48;100944.19;;;6.09;69.74
65151;BME280;51918;51.856;0.150;2023-04-27T03:08:50;100936.41;;;6.11;70.20
65151;BME280;51918;51.856;0.150;2023-04-27T03:13:51;100937.72;;;6.05;70.42
65151;BME280;51918;51.856;0.150;2023-04-27T03:18:51;100942.25;;;6.02;71.24
65151;BME280;51918;51.856;0.150;2023-04-27T03:23:53;100937.50;;;5.97;71.20
65151;BME280;51918;51.856;0.150;2023-04-27T03:28:54;100929.94;;;5.95;71.67
65151;BME280;51918;51.856;0.150;2023-04-27T03:33:54;100936.22;;;5.91;71.79
65151;BME280;51918;51.856;0.150;2023-04-27T03:38:56;100933.34;;;5.85;71.70
65151;BME280;51918;51.856;0.150;2023-04-27T03:43:57;100938.94;;;5.78;72.50
65151;BME280;51918;51.856;0.150;2023-04-27T03:48:58;100925.72;;;5.73;73.09
65151;BME280;51918;51.856;0.150;2023-04-27T03:53:59;100920.19;;;5.68;73.24
65151;BME280;51918;51.856;0.150;2023-04-27T03:59:00;100932.25;;;5.66;73.58
65151;BME280;51918;51.856;0.150;2023-04-27T04:04:01;100922.25;;;5.63;73.45
65151;BME280;51918;51.856;0.150;2023-04-27T04:09:03;100915.66;;;5.61;74.18
65151;BME280;51918;51.856;0.150;2023-04-27T04:14:03;100904.66;;;5.60;74.49
65151;BME280;51918;51.856;0.150;2023-04-27T04:19:04;100915.66;;;5.61;74.57
65151;BME280;51918;51.856;0.150;2023-04-27T04:24:06;100907.56;;;5.55;74.97
65151;BME280;51918;51.856;0.150;2023-04-27T04:29:06;100891.44;;;5.55;75.06
65151;BME280;51918;51.856;0.150;2023-04-27T04:34:07;100886.56;;;5.52;75.57
65151;BME280;51918;51.856;0.150;2023-04-27T04:39:09;100878.91;;;5.52;75.09
65151;BME280;51918;51.856;0.150;2023-04-27T04:44:10;100886.69;;;5.62;75.58
65151;BME280;51918;51.856;0.150;2023-04-27T04:49:10;100883.91;;;5.53;75.86
65151;BME280;51918;51.856;0.150;2023-04-27T04:54:12;100878.56;;;5.56;77.12
65151;BME280;51918;51.856;0.150;2023-04-27T04:59:13;100883.53;;;5.58;77.19
65151;BME280;51918;51.856;0.150;2023-04-27T05:04:13;100881.22;;;5.55;77.34
65151;BME280;51918;51.856;0.150;2023-04-27T05:09:16;100884.13;;;5.62;77.58
65151;BME280;51918;51.856;0.150;2023-04-27T05:14:16;100878.88;;;5.63;77.45
65151;BME280;51918;51.856;0.150;2023-04-27T05:19:17;100879.22;;;5.70;78.41
65151;BME280;51918;51.856;0.150;2023-04-27T05:24:19;100885.59;;;5.75;79.38
65151;BME280;51918;51.856;0.150;2023-04-27T05:29:19;100899.41;;;5.73;79.90
65151;BME280;51918;51.856;0.150;2023-04-27T05:34:20;100889.59;;;5.89;80.32
65151;BME280;51918;51.856;0.150;2023-04-27T05:39:22;100882.22;;;6.07;79.58
65151;BME280;51918;51.856;0.150;2023-04-27T05:44:23;100884.81;;;6.17;80.31
65151;BME280;51918;51.856;0.150;2023-04-27T05:49:23;100884.84;;;6.38;80.58
65151;BME280;51918;51.856;0.150;2023-04-27T05:54:26;100880.00;;;6.56;79.02
65151;BME280;51918;51.856;0.150;2023-04-27T05:59:26;100881.66;;;6.67;79.39
65151;BME280;51918;51.856;0.150;2023-04-27T06:04:27;100889.41;;;6.86;78.59
65151;BME280;51918;51.856;0.150;2023-04-27T06:09:29;100897.91;;;6.87;77.75
65151;BME280;51918;51.856;0.150;2023-04-27T06:14:30;100897.84;;;7.08;77.61
65151;BME280;51918;51.856;0.150;2023-04-27T06:19:31;100894.41;;;7.18;77.59
65151;BME280;51918;51.856;0.150;2023-04-27T06:24:33;100901.69;;;7.33;77.20
65151;BME280;51918;51.856;0.150;2023-04-27T06:29:34;100895.00;;;7.41;76.44
65151;BME280;51918;51.856;0.150;2023-04-27T06:34:34;100893.53;;;7.58;75.75
65151;BME280;51918;51.856;0.150;2023-04-27T06:39:36;100896.78;;;7.60;76.44
65151;BME280;51918;51.856;0.150;2023-04-27T06:44:37;100882.50;;;7.77;75.82
65151;BME280;51918;51.856;0.150;2023-04-27T06:49:38;100877.78;;;8.02;74.78
65151;BME280;51918;51.856;0.150;2023-04-27T06:54:40;100886.00;;;8.05;75.15
65151;BME280;51918;51.856;0.150;2023-04-27T06:59:40;100894.50;;;8.35;74.89
65151;BME280;51918;51.856;0.150;2023-04-27T07:04:41;100890.69;;;8.59;73.34
65151;BME280;51918;51.856;0.150;2023-04-27T07:09:43;100897.09;;;8.82;72.28
65151;BME280;51918;51.856;0.150;2023-04-27T07:14:44;100882.72;;;8.99;71.38
65151;BME280;51918;51.856;0.150;2023-04-27T07:19:44;100870.16;;;9.24;69.47
65151;BME280;51918;51.856;0.150;2023-04-27T07:24:46;100864.66;;;9.55;68.13
65151;BME280;51918;51.856;0.150;2023-04-27T07:29:47;100869.16;;;9.71;66.54
65151;BME280;51918;51.856;0.150;2023-04-27T07:34:48;100878.91;;;9.85;66.10
65151;BME280;51918;51.856;0.150;2023-04-27T07:39:50;100879.47;;;9.88;64.06
65151;BME280;51918;51.856;0.150;2023-04-27T07:44:51;100877.91;;;10.14;64.42
65151;BME280;51918;51.856;0.150;2023-04-27T07:49:51;100882.13;;;10.49;62.93
65151;BME280;51918;51.856;0.150;2023-04-27T07:54:53;100883.16;;;10.56;60.61
65151;BME280;51918;51.856;0.150;2023-04-27T07:59:54;100880.03;;;10.79;60.06
65151;BME280;51918;51.856;0.150;2023-04-27T08:04:56;100868.34;;;11.35;58.54
65151;BME280;51918;51.856;0.150;2023-04-27T08:09:58;100870.88;;;11.27;56.60
65151;BME280;51918;51.856;0.150;2023-04-27T08:14:59;100867.09;;;11.47;55.51
65151;BME280;51918;51.856;0.150;2023-04-27T08:19:59;100854.53;;;11.52;54.48
65151;BME280;51918;51.856;0.150;2023-04-27T08:25:01;100851.31;;;12.00;52.90
65151;BME280;51918;51.856;0.150;2023-04-27T08:30:02;100851.25;;;12.32;50.80
65151;BME280;51918;51.856;0.150;2023-04-27T08:35:04;100846.44;;;12.38;50.45
65151;BME280;51918;51.856;0.150;2023-04-27T08:40:07;100842.84;;;12.47;49.55
65151;BME280;51918;51.856;0.150;2023-04-27T08:45:08;100861.31;;;11.95;46.07
65151;BME280;51918;51.856;0.150;2023-04-27T08:50:10;100859.69;;;12.26;47.85
65151;BME280;51918;51.856;0.150;2023-04-27T08:55:12;100854.78;;;12.56;48.09
65151;BME280;51918;51.856;0.150;2023-04-27T09:00:14;100855.75;;;12.94;45.68
65151;BME280;51918;51.856;0.150;2023-04-27T09:05:15;100859.25;;;13.33;45.94
65151;BME280;51918;51.856;0.150;2023-04-27T09:10:17;100857.63;;;13.86;44.58
65151;BME280;51918;51.856;0.150;2023-04-27T09:15:18;100854.28;;;14.15;42.70
65151;BME280;51918;51.856;0.150;2023-04-27T09:20:19;100837.91;;;13.85;43.22
65151;BME280;51918;51.856;0.150;2023-04-27T09:25:25;100831.97;;;14.14;42.59
65151;BME280;51918;51.856;0.150;2023-04-27T09:30:26;100837.06;;;14.37;41.97
65151;BME280;51918;51.856;0.150;2023-04-27T09:35:28;100827.69;;;14.22;41.81
65151;BME280;51918;51.856;0.150;2023-04-27T09:40:30;100807.19;;;14.35;40.73
65151;BME280;51918;51.856;0.150;2023-04-27T09:45:32;100809.03;;;13.96;40.68
65151;BME280;51918;51.856;0.150;2023-04-27T09:50:34;100806.53;;;13.88;40.88
65151;BME280;51918;51.856;0.150;2023-04-27T09:55:39;100804.72;;;13.74;41.64
65151;BME280;51918;51.856;0.150;2023-04-27T10:00:54;100797.81;;;14.19;41.88
65151;BME280;51918;51.856;0.150;2023-04-27T10:11:37;100791.16;;;14.76;40.72
65151;BME280;51918;51.856;0.150;2023-04-27T10:16:43;100779.34;;;14.73;38.63
65151;BME280;51918;51.856;0.150;2023-04-27T10:21:54;100783.72;;;14.73;38.46
65151;BME280;51918;51.856;0.150;2023-04-27T10:27:00;100776.31;;;14.04;37.40
65151;BME280;51918;51.856;0.150;2023-04-27T10:32:05;100782.88;;;13.76;38.53
65151;BME280;51918;51.856;0.150;2023-04-27T10:37:07;100788.56;;;13.72;38.45
65151;BME280;51918;51.856;0.150;2023-04-27T10:42:09;100783.44;;;13.64;38.45
65151;BME280;51918;51.856;0.150;2023-04-27T10:47:14;100781.28;;;13.75;39.19
65151;BME280;51918;51.856;0.150;2023-04-27T10:52:15;100776.84;;;13.99;38.26
65151;BME280;51918;51.856;0.150;2023-04-27T10:57:17;100783.19;;;13.96;37.55
65151;BME280;51918;51.856;0.150;2023-04-27T11:02:25;100771.25;;;13.34;37.92
65151;BME280;51918;51.856;0.150;2023-04-27T11:07:27;100760.06;;;13.57;39.40
65151;BME280;51918;51.856;0.150;2023-04-27T11:12:30;100733.84;;;13.83;39.20
65151;BME280;51918;51.856;0.150;2023-04-27T11:17:31;100719.84;;;13.92;38.01
65151;BME280;51918;51.856;0.150;2023-04-27T11:22:32;100705.38;;;13.98;39.41
65151;BME280;51918;51.856;0.150;2023-04-27T11:27:37;100711.38;;;13.84;38.65
65151;BME280;51918;51.856;0.150;2023-04-27T11:32:38;100710.59;;;13.83;39.34
65151;BME280;51918;51.856;0.150;2023-04-27T11:37:39;100700.41;;;13.96;38.99
65151;BME280;51918;51.856;0.150;2023-04-27T11:42:41;100683.13;;;13.82;39.05
65151;BME280;51918;51.856;0.150;2023-04-27T11:47:45;100665.78;;;13.97;39.57
65151;BME280;51918;51.856;0.150;2023-04-27T11:52:47;100660.78;;;14.11;39.82
65151;BME280;51918;51.856;0.150;2023-04-27T11:57:55;100659.94;;;14.25;40.42
65151;BME280;51918;51.856;0.150;2023-04-27T12:02:56;100654.38;;;14.43;39.83
65151;BME280;51918;51.856;0.150;2023-04-27T12:07:57;100659.75;;;14.42;40.02
65151;BME280;51918;51.856;0.150;2023-04-27T12:12:59;100645.88;;;14.13;39.47
65151;BME280;51918;51.856;0.150;2023-04-27T12:18:00;100642.03;;;14.09;39.63
65151;BME280;51918;51.856;0.150;2023-04-27T12:23:01;100649.91;;;14.15;40.61
65151;BME280;51918;51.856;0.150;2023-04-27T12:28:03;100640.03;;;14.26;40.10
65151;BME280;51918;51.856;0.150;2023-04-27T12:33:04;100625.34;;;14.26;40.50
65151;BME280;51918;51.856;0.150;2023-04-27T12:38:04;100636.34;;;14.71;39.78
65151;BME280;51918;51.856;0.150;2023-04-27T12:43:07;100633.41;;;15.03;39.57
65151;BME280;51918;51.856;0.150;2023-04-27T12:48:08;100623.63;;;14.33;39.21
65151;BME280;51918;51.856;0.150;2023-04-27T12:53:08;100625.97;;;14.28;39.59
65151;BME280;51918;51.856;0.150;2023-04-27T12:58:10;100613.63;;;14.30;40.84
65151;BME280;51918;51.856;0.150;2023-04-27T13:03:11;100586.09;;;14.66;40.37
65151;BME280;51918;51.856;0.150;2023-04-27T13:08:12;100578.13;;;14.67;39.87
65151;BME280;51918;51.856;0.150;2023-04-27T13:13:14;100602.69;;;14.71;40.25
65151;BME280;51918;51.856;0.150;2023-04-27T13:18:14;100594.22;;;14.41;40.95
65151;BME280;51918;51.856;0.150;2023-04-27T13:23:15;100599.34;;;14.56;41.50
65151;BME280;51918;51.856;0.150;2023-04-27T13:28:18;100599.09;;;14.51;41.67
65151;BME280;51918;51.856;0.150;2023-04-27T13:33:18;100612.69;;;14.16;42.93
65151;BME280;51918;51.856;0.150;2023-04-27T13:38:19;100602.78;;;14.20;43.12
65151;BME280;51918;51.856;0.150;2023-04-27T13:43:21;100608.78;;;14.42;43.13
65151;BME280;51918;51.856;0.150;2023-04-27T13:48:22;100607.38;;;14.40;43.08
65151;BME280;51918;51.856;0.150;2023-04-27T13:53:23;100595.75;;;14.14;43.05
65151;BME280;51918;51.856;0.150;2023-04-27T13:58:26;100588.72;;;14.08;43.55
65151;BME280;51918;51.856;0.150;2023-04-27T14:03:27;100569.25;;;13.90;44.08
65151;BME280;51918;51.856;0.150;2023-04-27T14:08:28;100569.34;;;13.82;44.40
65151;BME280;51918;51.856;0.150;2023-04-27T14:13:30;100579.88;;;13.51;45.42
65151;BME280;51918;51.856;0.150;2023-04-27T14:18:30;100557.06;;;13.40;45.88
65151;BME280;51918;51.856;0.150;2023-04-27T14:23:31;100554.84;;;13.22;45.75
65151;BME280;51918;51.856;0.150;2023-04-27T14:28:33;100547.63;;;13.02;46.10
65151;BME280;51918;51.856;0.150;2023-04-27T14:33:33;100535.47;;;12.73;46.71
65151;BME280;51918;51.856;0.150;2023-04-27T14:38:34;100557.28;;;12.85;46.80
65151;BME280;51918;51.856;0.150;2023-04-27T14:43:36;100533.31;;;12.62;46.87
65151;BME280;51918;51.856;0.150;2023-04-27T14:48:37;100551.72;;;12.36;47.26
65151;BME280;51918;51.856;0.150;2023-04-27T14:53:37;100550.91;;;12.35;47.88
65151;BME280;51918;51.856;0.150;2023-04-27T14:58:39;100556.28;;;12.25;47.76
65151;BME280;51918;51.856;0.150;2023-04-27T15:03:40;100559.09;;;11.84;48.79
65151;BME280;51918;51.856;0.150;2023-04-27T15:08:40;100578.06;;;11.91;49.32
65151;BME280;51918;51.856;0.150;2023-04-27T15:13:42;100572.91;;;11.91;50.77
65151;BME280;51918;51.856;0.150;2023-04-27T15:18:43;100589.84;;;11.46;53.84
65151;BME280;51918;51.856;0.150;2023-04-27T15:23:44;100584.38;;;11.25;55.17
65151;BME280;51918;51.856;0.150;2023-04-27T15:28:46;100591.50;;;11.23;56.14
65151;BME280;51918;51.856;0.150;2023-04-27T15:33:46;100594.38;;;11.11;57.25
65151;BME280;51918;51.856;0.150;2023-04-27T15:38:47;100604.41;;;10.74;60.12
65151;BME280;51918;51.856;0.150;2023-04-27T15:43:49;100585.09;;;10.53;61.97
65151;BME280;51918;51.856;0.150;2023-04-27T15:48:50;100570.91;;;10.41;64.43
65151;BME280;51918;51.856;0.150;2023-04-27T15:53:51;100574.59;;;10.30;65.14
65151;BME280;51918;51.856;0.150;2023-04-27T15:58:53;100560.16;;;10.37;65.68
65151;BME280;51918;51.856;0.150;2023-04-27T16:03:53;100551.63;;;10.28;66.76
65151;BME280;51918;51.856;0.150;2023-04-27T16:08:54;100535.72;;;10.25;69.12
65151;BME280;51918;51.856;0.150;2023-04-27T16:13:56;100504.06;;;10.24;70.52
65151;BME280;51918;51.856;0.150;2023-04-27T16:18:57;100506.47;;;10.18;71.03
65151;BME280;51918;51.856;0.150;2023-04-27T16:23:58;100484.44;;;9.99;72.24
65151;BME280;51918;51.856;0.150;2023-04-27T16:29:00;100480.09;;;9.99;72.43
65151;BME280;51918;51.856;0.150;2023-04-27T16:34:00;100459.31;;;9.84;73.16
65151;BME280;51918;51.856;0.150;2023-04-27T16:39:01;100452.41;;;9.85;73.80
65151;BME280;51918;51.856;0.150;2023-04-27T16:44:03;100441.59;;;9.57;75.52
65151;BME280;51918;51.856;0.150;2023-04-27T16:49:04;100434.88;;;9.56;75.26
65151;BME280;51918;51.856;0.150;2023-04-27T16:54:04;100412.50;;;9.32;77.18
65151;BME280;51918;51.856;0.150;2023-04-27T16:59:07;100406.47;;;9.49;75.78
65151;BME280;51918;51.856;0.150;2023-04-27T17:04:07;100397.63;;;9.52;75.98
65151;BME280;51918;51.856;0.150;2023-04-27T17:09:08;100378.63;;;9.28;77.61
65151;BME280;51918;51.856;0.150;2023-04-27T17:14:10;100371.59;;;9.30;76.93
65151;BME280;51918;51.856;0.150;2023-04-27T17:19:10;100364.22;;;9.35;78.66
65151;BME280;51918;51.856;0.150;2023-04-27T17:24:11;100361.31;;;9.30;78.41
65151;BME280;51918;51.856;0.150;2023-04-27T17:29:13;100363.56;;;9.33;77.58
65151;BME280;51918;51.856;0.150;2023-04-27T17:34:14;100353.75;;;9.12;78.98
65151;BME280;51918;51.856;0.150;2023-04-27T17:39:14;100356.84;;;9.32;76.84
65151;BME280;51918;51.856;0.150;2023-04-27T17:44:16;100351.47;;;9.09;78.37
65151;BME280;51918;51.856;0.150;2023-04-27T17:49:17;100342.38;;;9.15;78.34
65151;BME280;51918;51.856;0.150;2023-04-27T17:54:18;100331.75;;;9.01;79.20
65151;BME280;51918;51.856;0.150;2023-04-27T17:59:20;100327.88;;;9.05;79.25
65151;BME280;51918;51.856;0.150;2023-04-27T18:04:21;100335.44;;;9.07;78.80
65151;BME280;51918;51.856;0.150;2023-04-27T18:09:21;100323.03;;;8.94;79.31
65151;BME280;51918;51.856;0.150;2023-04-27T18:14:24;100300.31;;;8.99;79.57
65151;BME280;51918;51.856;0.150;2023-04-27T18:19:24;100290.03;;;8.91;80.48
65151;BME280;51918;51.856;0.150;2023-04-27T18:24:25;100298.34;;;8.85;80.60
65151;BME280;51918;51.856;0.150;2023-04-27T18:29:27;100287.44;;;8.83;80.81
65151;BME280;51918;51.856;0.150;2023-04-27T18:34:27;100278.16;;;8.82;81.05
65151;BME280;51918;51.856;0.150;2023-04-27T18:39:28;100283.91;;;8.92;80.21
65151;BME280;51918;51.856;0.150;2023-04-27T18:44:30;100273.00;;;8.90;79.68
65151;BME280;51918;51.856;0.150;2023-04-27T18:49:32;100272.72;;;8.93;78.57
65151;BME280;51918;51.856;0.150;2023-04-27T18:54:33;100266.09;;;8.74;81.27
65151;BME280;51918;51.856;0.150;2023-04-27T18:59:36;100254.72;;;8.77;81.79
65151;BME280;51918;51.856;0.150;2023-04-27T19:04:37;100231.50;;;8.95;81.20
65151;BME280;51918;51.856;0.150;2023-04-27T19:09:37;100236.94;;;8.92;81.65
65151;BME280;51918;51.856;0.150;2023-04-27T19:14:39;100247.66;;;8.79;83.22
65151;BME280;51918;51.856;0.150;2023-04-27T19:19:40;100242.22;;;8.90;83.03
65151;BME280;51918;51.856;0.150;2023-04-27T19:24:41;100258.91;;;8.94;82.62
65151;BME280;51918;51.856;0.150;2023-04-27T19:29:51;100249.09;;;8.81;84.27
65151;BME280;51918;51.856;0.150;2023-04-27T19:34:52;100260.47;;;8.71;85.83
65151;BME280;51918;51.856;0.150;2023-04-27T19:39:53;100252.59;;;8.64;86.85
65151;BME280;51918;51.856;0.150;2023-04-27T19:44:55;100246.22;;;8.76;86.80
65151;BME280;51918;51.856;0.150;2023-04-27T19:49:55;100234.31;;;8.59;89.84
65151;BME280;51918;51.856;0.150;2023-04-27T19:54:56;100213.66;;;8.69;89.50
65151;BME280;51918;51.856;0.150;2023-04-27T19:59:58;100223.25;;;8.58;91.57
65151;BME280;51918;51.856;0.150;2023-04-27T20:04:59;100218.00;;;8.76;89.98
65151;BME280;51918;51.856;0.150;2023-04-27T20:09:59;100202.59;;;8.68;90.66
65151;BME280;51918;51.856;0.150;2023-04-27T20:15:02;100181.16;;;8.85;89.48
65151;BME280;51918;51.856;0.150;2023-04-27T20:20:03;100165.75;;;8.77;90.06
65151;BME280;51918;51.856;0.150;2023-04-27T20:25:04;100175.56;;;8.98;87.52
65151;BME280;51918;51.856;0.150;2023-04-27T20:30:08;100156.31;;;9.02;87.86
65151;BME280;51918;51.856;0.150;2023-04-27T20:35:08;100177.50;;;9.13;86.71
65151;BME280;51918;51.856;0.150;2023-04-27T20:40:10;100160.19;;;9.23;85.58
65151;BME280;51918;51.856;0.150;2023-04-27T20:45:12;100161.75;;;9.32;85.02
65151;BME280;51918;51.856;0.150;2023-04-27T20:50:12;100148.59;;;9.27;85.46
65151;BME280;51918;51.856;0.150;2023-04-27T20:55:13;100165.28;;;9.31;84.42
65151;BME280;51918;51.856;0.150;2023-04-27T21:00:16;100179.72;;;9.16;86.11
65151;BME280;51918;51.856;0.150;2023-04-27T21:05:16;100165.28;;;9.39;84.41
65151;BME280;51918;51.856;0.150;2023-04-27T21:10:17;100143.47;;;9.27;85.22
65151;BME280;51918;51.856;0.150;2023-04-27T21:15:19;100141.56;;;9.13;86.84
65151;BME280;51918;51.856;0.150;2023-04-27T21:20:20;100132.25;;;9.12;87.60
65151;BME280;51918;51.856;0.150;2023-04-27T21:25:20;100114.13;;;9.21;86.84
65151;BME280;51918;51.856;0.150;2023-04-27T21:30:23;100125.19;;;9.22;88.01
65151;BME280;51918;51.856;0.150;2023-04-27T21:35:25;100104.38;;;9.17;89.45
65151;BME280;51918;51.856;0.150;2023-04-27T21:40:25;100099.88;;;9.02;91.10
65151;BME280;51918;51.856;0.150;2023-04-27T21:45:28;100091.34;;;9.26;89.11
65151;BME280;51918;51.856;0.150;2023-04-27T21:50:28;100092.94;;;9.36;88.75
65151;BME280;51918;51.856;0.150;2023-04-27T21:55:29;100085.34;;;9.51;88.25
65151;BME280;51918;51.856;0.150;2023-04-27T22:00:31;100071.28;;;9.38;89.29
65151;BME280;51918;51.856;0.150;2023-04-27T22:05:31;100086.38;;;9.25;91.18
65151;BME280;51918;51.856;0.150;2023-04-27T22:10:32;100073.22;;;9.28;91.21
65151;BME280;51918;51.856;0.150;2023-04-27T22:15:34;100058.13;;;9.33;92.29
65151;BME280;51918;51.856;0.150;2023-04-27T22:20:35;100063.56;;;9.38;92.25
65151;BME280;51918;51.856;0.150;2023-04-27T22:25:35;100043.34;;;9.35;94.34
65151;BME280;51918;51.856;0.150;2023-04-27T22:30:39;100053.81;;;9.34;94.71
65151;BME280;51918;51.856;0.150;2023-04-27T22:35:39;100050.09;;;9.36;94.31
65151;BME280;51918;51.856;0.150;2023-04-27T22:40:40;100041.44;;;9.29;95.74
65151;BME280;51918;51.856;0.150;2023-04-27T22:45:42;100018.31;;;9.37;95.73
65151;BME280;51918;51.856;0.150;2023-04-27T22:50:43;100005.84;;;9.26;97.35
65151;BME280;51918;51.856;0.150;2023-04-27T22:55:43;99999.94;;;9.25;97.88
65151;BME280;51918;51.856;0.150;2023-04-27T23:00:45;100002.50;;;9.25;99.60
65151;BME280;51918;51.856;0.150;2023-04-27T23:05:46;99998.84;;;9.12;100.00
65151;BME280;51918;51.856;0.150;2023-04-27T23:10:46;99999.31;;;9.15;100.00
65151;BME280;51918;51.856;0.150;2023-04-27T23:15:48;99983.25;;;9.21;100.00
65151;BME280;51918;51.856;0.150;2023-04-27T23:20:51;99989.06;;;9.07;100.00
65151;BME280;51918;51.856;0.150;2023-04-27T23:25:52;99983.16;;;9.06;100.00
65151;BME280;51918;51.856;0.150;2023-04-27T23:30:54;99990.84;;;9.06;100.00
65151;BME280;51918;51.856;0.150;2023-04-27T23:35:55;100006.09;;;9.00;100.00
65151;BME280;51918;51.856;0.150;2023-04-27T23:40:55;100003.56;;;9.31;100.00
65151;BME280;51918;51.856;0.150;2023-04-27T23:45:57;99996.34;;;9.43;100.00
65151;BME280;51918;51.856;0.150;2023-04-27T23:50:58;99979.00;;;9.45;100.00
65151;BME280;51918;51.856;0.150;2023-04-27T23:55:59;99976.28;;;9.46;100.00
